createdAt,value
2022-09-23T00:00:40.264Z,22.23
2022-09-23T00:05:43.004Z,22.20
2022-09-23T00:10:47.759Z,22.12
2022-09-23T00:15:50.557Z,22.06
2022-09-23T00:20:53.168Z,21.98
2022-09-23T00:26:00.350Z,21.92
2022-09-23T00:31:04.028Z,21.95
2022-09-23T00:36:07.862Z,22.00
2022-09-23T00:41:11.891Z,22.04
2022-09-23T00:46:17.556Z,22.05
2022-09-23T00:51:21.673Z,22.06
2022-09-23T00:56:25.855Z,22.04
2022-09-23T01:01:28.770Z,22.01
2022-09-23T01:06:31.876Z,21.99
2022-09-23T01:11:45.575Z,21.95
2022-09-23T01:16:51.741Z,21.92
2022-09-23T01:21:57.473Z,21.87
2022-09-23T01:27:06.544Z,21.89
2022-09-23T01:32:13.171Z,21.87
2022-09-23T01:37:18.783Z,21.88
2022-09-23T01:42:25.271Z,21.87
2022-09-23T01:47:31.423Z,21.82
2022-09-23T01:52:37.477Z,21.74
2022-09-23T02:02:49.661Z,21.64
2022-09-23T02:07:53.973Z,21.59
2022-09-23T02:12:58.551Z,21.55
2022-09-23T02:18:03.527Z,21.51
2022-09-23T02:23:07.517Z,21.44
2022-09-23T02:28:12.664Z,21.38
2022-09-23T02:33:19.319Z,21.31
2022-09-23T02:38:26.195Z,21.24
2022-09-23T02:43:35.422Z,21.24
2022-09-23T02:48:41.841Z,21.18
2022-09-23T02:53:45.777Z,21.11
2022-09-23T02:58:48.494Z,21.02
2022-09-23T03:03:56.374Z,20.96
2022-09-23T03:09:00.020Z,20.89
2022-09-23T03:14:07.023Z,20.87
2022-09-23T03:19:20.352Z,20.83
2022-09-23T03:24:23.010Z,20.76
2022-09-23T03:29:25.618Z,20.74
2022-09-23T03:34:30.292Z,20.63
2022-09-23T03:39:35.575Z,20.62
2022-09-23T03:44:39.024Z,20.59
2022-09-23T03:49:43.595Z,20.54
2022-09-23T03:54:46.230Z,20.51
2022-09-23T03:59:48.913Z,20.45
2022-09-23T04:04:52.883Z,20.41
2022-09-23T04:09:55.744Z,20.40
2022-09-23T04:14:58.334Z,20.36
2022-09-23T04:20:02.573Z,20.34
2022-09-23T04:25:05.916Z,20.31
2022-09-23T04:30:09.825Z,20.27
2022-09-23T04:35:13.754Z,20.27
2022-09-23T04:40:16.547Z,20.26
2022-09-23T04:45:19.199Z,20.23
2022-09-23T04:50:23.105Z,20.22
2022-09-23T04:55:25.748Z,20.20
2022-09-23T05:00:28.607Z,20.17
2022-09-23T05:05:33.038Z,20.17
2022-09-23T05:10:39.145Z,20.11
2022-09-23T05:15:41.717Z,20.11
2022-09-23T05:20:45.635Z,20.09
2022-09-23T05:25:48.360Z,20.05
2022-09-23T05:30:50.949Z,20.08
2022-09-23T05:35:54.847Z,20.05
2022-09-23T05:40:58.321Z,20.03
2022-09-23T05:46:07.944Z,20.03
2022-09-23T05:51:14.708Z,20.01
2022-09-23T05:56:18.164Z,20.01
2022-09-23T06:01:21.943Z,20.02
2022-09-23T06:06:28.507Z,20.03
2022-09-23T06:11:31.271Z,20.02
2022-09-23T06:16:34.822Z,20.02
2022-09-23T06:21:40.561Z,20.04
2022-09-23T06:26:43.310Z,20.03
2022-09-23T06:31:46.280Z,20.02
2022-09-23T06:36:51.640Z,20.04
2022-09-23T06:41:54.336Z,20.06
2022-09-23T06:46:58.174Z,20.09
2022-09-23T06:52:02.441Z,20.07
2022-09-23T06:57:05.156Z,20.10
2022-09-23T07:02:08.569Z,20.11
2022-09-23T07:07:14.075Z,20.12
2022-09-23T07:12:16.653Z,20.14
2022-09-23T07:17:19.252Z,20.14
2022-09-23T07:22:24.285Z,20.17
2022-09-23T07:27:27.790Z,20.17
2022-09-23T07:32:41.618Z,20.22
2022-09-23T07:37:48.790Z,20.25
2022-09-23T07:42:51.382Z,20.26
2022-09-23T07:47:55.108Z,20.25
2022-09-23T07:52:59.349Z,20.26
2022-09-23T07:58:02.009Z,20.26
2022-09-23T08:03:04.856Z,20.30
2022-09-23T08:08:09.021Z,20.32
2022-09-23T08:13:11.669Z,20.33
2022-09-23T08:18:14.413Z,20.36
2022-09-23T08:23:18.406Z,20.38
2022-09-23T08:28:21.856Z,20.38
2022-09-23T08:33:24.810Z,20.49
2022-09-23T08:38:28.864Z,19.90
2022-09-23T08:43:32.380Z,19.55
2022-09-23T08:48:36.774Z,19.35
2022-09-23T08:53:42.308Z,19.48
2022-09-23T08:58:55.664Z,19.06
2022-09-23T09:03:59.668Z,19.00
2022-09-23T09:09:04.269Z,18.41
2022-09-23T09:14:16.791Z,17.44
2022-09-23T09:19:20.823Z,18.41
2022-09-23T09:24:28.284Z,18.51
2022-09-23T09:29:35.938Z,18.02
2022-09-23T09:34:40.628Z,18.17
2022-09-23T09:39:44.596Z,19.00
2022-09-23T09:44:49.165Z,19.38
2022-09-23T09:49:55.511Z,19.58
2022-09-23T09:55:17.122Z,19.74
2022-09-23T10:00:36.378Z,19.89
2022-09-23T10:05:48.834Z,20.01
2022-09-23T10:10:54.508Z,20.10
2022-09-23T10:15:57.212Z,20.24
2022-09-23T10:21:08.657Z,20.29
2022-09-23T10:26:13.282Z,20.42
2022-09-23T10:31:16.779Z,20.49
2022-09-23T10:36:19.432Z,20.57
2022-09-23T10:41:48.199Z,20.36
2022-09-23T10:46:52.497Z,20.51
2022-09-23T10:52:02.180Z,20.62
2022-09-23T10:57:28.918Z,20.70
2022-09-23T11:02:43.155Z,20.79
2022-09-23T11:07:47.654Z,20.84
2022-09-23T11:12:55.601Z,20.93
2022-09-23T11:18:11.618Z,20.95
2022-09-23T11:23:38.191Z,20.96
2022-09-23T11:29:05.127Z,20.99
2022-09-23T11:34:45.431Z,21.01
2022-09-23T11:39:50.059Z,21.00
2022-09-23T11:44:57.704Z,21.03
2022-09-23T11:50:01.273Z,20.96
2022-09-23T11:55:15.114Z,21.01
2022-09-23T12:00:23.898Z,21.14
2022-09-23T12:05:28.735Z,21.28
2022-09-23T12:10:39.517Z,21.46
2022-09-23T12:15:50.964Z,21.15
2022-09-23T12:21:06.024Z,21.02
2022-09-23T12:26:09.057Z,21.24
2022-09-23T12:31:14.158Z,21.26
2022-09-23T12:36:17.545Z,21.36
2022-09-23T12:41:21.934Z,21.49
2022-09-23T12:46:27.200Z,21.54
2022-09-23T12:51:30.129Z,21.61
2022-09-23T12:57:03.577Z,21.63
2022-09-23T13:02:24.247Z,21.44
2022-09-23T13:07:29.936Z,21.36
2022-09-23T13:12:33.916Z,21.58
2022-09-23T13:17:38.877Z,21.77
2022-09-23T13:22:57.434Z,21.80
2022-09-23T13:28:01.462Z,21.83
2022-09-23T13:33:07.122Z,21.87
2022-09-23T13:38:12.743Z,22.10
2022-09-23T13:43:18.049Z,22.28
2022-09-23T13:48:23.644Z,22.38
2022-09-23T13:53:27.508Z,22.54
2022-09-23T13:58:30.599Z,22.67
2022-09-23T14:03:37.316Z,22.48
2022-09-23T14:08:40.203Z,22.38
2022-09-23T14:13:43.293Z,22.38
2022-09-23T14:18:48.259Z,22.38
2022-09-23T14:23:50.998Z,22.29
2022-09-23T14:28:53.724Z,22.26
2022-09-23T14:33:57.742Z,22.28
2022-09-23T14:39:05.210Z,22.25
2022-09-23T14:44:08.170Z,22.27
2022-09-23T14:49:16.504Z,22.34
2022-09-23T14:54:33.008Z,22.64
2022-09-23T14:59:36.326Z,22.64
2022-09-23T15:04:40.441Z,22.53
2022-09-23T15:09:43.296Z,22.98
2022-09-23T15:14:47.135Z,23.13
2022-09-23T15:19:52.902Z,22.88
2022-09-23T15:24:56.344Z,22.91
2022-09-23T15:30:05.019Z,22.86
2022-09-23T15:35:12.444Z,22.83
2022-09-23T15:40:19.228Z,22.79
2022-09-23T15:45:22.518Z,22.73
2022-09-23T15:50:26.459Z,22.70
2022-09-23T15:55:29.285Z,22.64
2022-09-23T16:00:32.295Z,22.57
2022-09-23T16:05:37.907Z,22.42
2022-09-23T16:10:40.548Z,22.38
2022-09-23T16:15:43.287Z,22.29
2022-09-23T16:20:47.644Z,22.35
2022-09-23T16:25:50.281Z,21.89
2022-09-23T16:30:53.072Z,21.61
2022-09-23T16:35:57.542Z,21.81
2022-09-23T16:41:00.482Z,21.81
2022-09-23T16:46:03.492Z,21.75
2022-09-23T16:51:07.696Z,21.78
2022-09-23T16:56:11.349Z,21.58
2022-09-23T17:01:32.843Z,21.55
2022-09-23T17:06:37.026Z,21.50
2022-09-23T17:11:39.663Z,21.48
2022-09-23T17:16:42.650Z,21.48
2022-09-23T17:21:46.894Z,21.44
2022-09-23T17:26:53.081Z,21.42
2022-09-23T17:31:56.216Z,21.41
2022-09-23T17:37:02.405Z,21.44
2022-09-23T17:42:05.377Z,21.35
2022-09-23T17:47:07.987Z,21.38
2022-09-23T17:52:11.983Z,21.36
2022-09-23T17:57:14.649Z,21.31
2022-09-23T18:02:17.464Z,21.32
2022-09-23T18:07:21.407Z,21.26
2022-09-23T18:12:24.249Z,21.25
2022-09-23T18:17:26.844Z,21.23
2022-09-23T18:22:30.819Z,21.22
2022-09-23T18:27:34.482Z,21.18
2022-09-23T18:32:37.232Z,21.18
2022-09-23T18:37:41.219Z,21.15
2022-09-23T18:42:43.821Z,21.16
2022-09-23T18:48:04.142Z,21.15
2022-09-23T18:53:08.747Z,21.13
2022-09-23T18:58:13.273Z,21.09
2022-09-23T19:03:17.307Z,21.11
2022-09-23T19:08:21.238Z,21.07
2022-09-23T19:13:23.978Z,21.04
2022-09-23T19:18:26.642Z,21.05
2022-09-23T19:23:32.031Z,21.07
2022-09-23T19:28:34.650Z,21.01
2022-09-23T19:33:37.276Z,21.04
2022-09-23T19:38:41.350Z,20.99
2022-09-23T19:43:44.150Z,20.97
2022-09-23T19:48:46.806Z,21.01
2022-09-23T19:53:50.966Z,20.96
2022-09-23T19:58:55.586Z,20.97
2022-09-23T20:03:58.285Z,20.97
2022-09-23T20:09:02.836Z,20.91
2022-09-23T20:14:06.645Z,20.88
2022-09-23T20:19:10.416Z,20.89
2022-09-23T20:24:14.354Z,20.85
2022-09-23T20:29:16.998Z,20.85
2022-09-23T20:34:21.141Z,20.82
2022-09-23T20:39:25.077Z,20.81
2022-09-23T20:44:27.678Z,20.83
2022-09-23T20:49:34.021Z,20.85
2022-09-23T20:54:39.146Z,20.81
2022-09-23T20:59:41.739Z,20.79
2022-09-23T21:04:44.486Z,20.81
2022-09-23T21:09:48.662Z,20.82
2022-09-23T21:14:51.500Z,20.79
2022-09-23T21:19:54.248Z,20.83
2022-09-23T21:30:21.582Z,20.78
2022-09-23T21:35:24.298Z,20.76
2022-09-23T21:40:46.004Z,20.76
2022-09-23T21:45:49.311Z,20.74
2022-09-23T21:50:56.694Z,20.78
2022-09-23T21:56:04.696Z,20.78
2022-09-23T22:01:08.188Z,20.78
2022-09-23T22:06:11.522Z,20.78
2022-09-23T22:11:30.494Z,20.77
2022-09-23T22:16:33.186Z,20.73
2022-09-23T22:21:36.715Z,20.75
2022-09-23T22:26:41.548Z,20.72
2022-09-23T22:32:01.939Z,20.73
2022-09-23T22:37:04.596Z,20.75
2022-09-23T22:42:08.851Z,20.80
2022-09-23T22:47:11.625Z,20.80
2022-09-23T22:52:15.860Z,20.86
2022-09-23T22:57:20.248Z,20.96
2022-09-23T23:02:23.651Z,20.97
2022-09-23T23:07:26.452Z,21.04
2022-09-23T23:12:30.379Z,21.07
2022-09-23T23:17:33.056Z,21.13
2022-09-23T23:22:35.972Z,21.19
2022-09-23T23:27:39.952Z,21.24
2022-09-23T23:32:42.597Z,21.30
2022-09-23T23:37:45.245Z,21.33
2022-09-23T23:42:49.217Z,21.35
2022-09-23T23:47:51.850Z,21.41
2022-09-23T23:52:54.531Z,21.49
2022-09-23T23:58:03.100Z,21.52
